createdAt,value
2023-01-21T00:00:07.201Z,15.6
2023-01-21T00:01:14.948Z,13.3
2023-01-21T00:02:22.541Z,13.4
2023-01-21T00:03:29.744Z,18.7
2023-01-21T00:04:36.731Z,13.7
2023-01-21T00:05:43.869Z,15.3
2023-01-21T00:06:50.887Z,14.1
2023-01-21T00:07:57.975Z,13.7
2023-01-21T00:09:05.187Z,13.6
2023-01-21T00:10:12.415Z,14.1
2023-01-21T00:11:19.500Z,13.7
2023-01-21T00:12:26.583Z,13.4
2023-01-21T00:13:33.687Z,15.4
2023-01-21T00:14:40.820Z,12.7
2023-01-21T00:15:47.985Z,14.2
2023-01-21T00:16:55.224Z,17.5
2023-01-21T00:18:02.673Z,14.3
2023-01-21T00:19:10.331Z,15
2023-01-21T00:20:17.595Z,13.6
2023-01-21T00:21:24.664Z,13.4
2023-01-21T00:22:31.748Z,12.7
2023-01-21T00:23:39.002Z,13.4
2023-01-21T00:24:46.007Z,12.3
2023-01-21T00:25:53.119Z,12.3
2023-01-21T00:27:05.340Z,10.7
2023-01-21T00:28:12.391Z,11.1
2023-01-21T00:29:19.675Z,15.9
2023-01-21T00:30:26.790Z,12.8
2023-01-21T00:31:34.012Z,12.4
2023-01-21T00:32:41.094Z,10.8
2023-01-21T00:33:48.025Z,11.3
2023-01-21T00:34:55.187Z,11.1
2023-01-21T00:36:02.344Z,11.2
2023-01-21T00:37:09.539Z,12.5
2023-01-21T00:38:16.675Z,11.1
2023-01-21T00:39:23.784Z,11.9
2023-01-21T00:40:30.822Z,11.3
2023-01-21T00:41:37.954Z,10.6
2023-01-21T00:42:45.110Z,10.7
2023-01-21T00:43:52.135Z,11.4
2023-01-21T00:44:59.390Z,11.5
2023-01-21T00:46:07.009Z,11.5
2023-01-21T00:47:14.023Z,11.7
2023-01-21T00:48:21.133Z,11.5
2023-01-21T00:49:28.339Z,10.7
2023-01-21T00:50:35.475Z,10
2023-01-21T00:51:42.609Z,10.8
2023-01-21T00:52:49.585Z,10.1
2023-01-21T00:53:56.688Z,10.6
2023-01-21T00:55:03.876Z,11
2023-01-21T00:56:11.060Z,11.6
2023-01-21T00:57:18.264Z,10.5
2023-01-21T00:58:25.328Z,10.4
2023-01-21T00:59:32.464Z,10.7
2023-01-21T01:00:39.462Z,10.9
2023-01-21T01:01:46.690Z,11.2
2023-01-21T01:02:53.791Z,10.4
2023-01-21T01:04:00.929Z,10.6
2023-01-21T01:05:07.959Z,9.9
2023-01-21T01:06:15.017Z,11.6
2023-01-21T01:07:22.270Z,10.5
2023-01-21T01:08:29.370Z,10.3
2023-01-21T01:09:36.460Z,10.7
2023-01-21T01:10:43.602Z,10.3
2023-01-21T01:11:50.649Z,10.1
2023-01-21T01:12:57.745Z,10.2
2023-01-21T01:14:04.958Z,10
2023-01-21T01:15:12.073Z,10.2
2023-01-21T01:16:19.208Z,10.2
2023-01-21T01:17:26.404Z,10.2
2023-01-21T01:18:33.467Z,9.7
2023-01-21T01:19:40.726Z,10.1
2023-01-21T01:20:48.175Z,10.6
2023-01-21T01:21:55.316Z,10
2023-01-21T01:23:02.507Z,10.1
2023-01-21T01:24:09.625Z,10.7
2023-01-21T01:25:16.691Z,10.1
2023-01-21T01:26:23.881Z,10.1
2023-01-21T01:27:31.033Z,9.4
2023-01-21T01:28:38.233Z,9.4
2023-01-21T01:29:45.352Z,9.5
2023-01-21T01:30:52.622Z,9.8
2023-01-21T01:31:59.435Z,9.2
2023-01-21T01:33:06.503Z,10.1
2023-01-21T01:34:13.687Z,9.6
2023-01-21T01:35:20.890Z,9.5
2023-01-21T01:36:28.029Z,9.7
2023-01-21T01:37:35.237Z,10.2
2023-01-21T01:38:42.346Z,8.9
2023-01-21T01:39:49.379Z,9.2
2023-01-21T01:40:56.480Z,9
2023-01-21T01:42:03.759Z,9.6
2023-01-21T01:43:11.407Z,9.4
2023-01-21T01:44:20.972Z,9.5
2023-01-21T01:45:38.281Z,9.8
2023-01-21T01:46:45.415Z,10.1
2023-01-21T01:47:52.534Z,9.7
2023-01-21T01:48:59.567Z,9.7
2023-01-21T01:50:09.405Z,9.9
2023-01-21T01:51:16.456Z,9.2
2023-01-21T01:52:23.536Z,9.2
2023-01-21T01:53:30.804Z,8.8
2023-01-21T01:54:37.803Z,9.2
2023-01-21T01:55:45.071Z,9.7
2023-01-21T01:56:52.091Z,8.7
2023-01-21T01:57:59.186Z,9.2
2023-01-21T01:59:06.280Z,9.6
2023-01-21T02:00:13.418Z,9.7
2023-01-21T02:01:20.653Z,9.1
2023-01-21T02:02:27.807Z,8.7
2023-01-21T02:03:34.964Z,9.7
2023-01-21T02:04:47.103Z,9.2
2023-01-21T02:05:54.068Z,10.4
2023-01-21T02:07:01.213Z,9.4
2023-01-21T02:08:08.281Z,9.3
2023-01-21T02:09:15.422Z,9.4
2023-01-21T02:10:22.619Z,9.1
2023-01-21T02:11:29.817Z,9.4
2023-01-21T02:12:36.910Z,9
2023-01-21T02:13:44.016Z,9
2023-01-21T02:14:54.058Z,8.7
2023-01-21T02:16:01.351Z,8.8
2023-01-21T02:17:16.103Z,8.6
2023-01-21T02:18:28.263Z,8.4
2023-01-21T02:19:45.579Z,9.2
2023-01-21T02:21:02.809Z,10.2
2023-01-21T02:22:17.657Z,10.3
2023-01-21T02:23:24.774Z,10.2
2023-01-21T02:24:40.021Z,10.8
2023-01-21T02:25:57.731Z,9
2023-01-21T02:27:10.034Z,9.4
2023-01-21T02:28:27.293Z,9.5
2023-01-21T02:29:34.618Z,9.5
2023-01-21T02:30:49.670Z,9.2
2023-01-21T02:32:07.050Z,10.5
2023-01-21T02:33:22.263Z,10.2
2023-01-21T02:34:39.722Z,10.9
2023-01-21T02:35:52.586Z,10.1
2023-01-21T02:37:07.952Z,10
2023-01-21T02:38:18.159Z,9.9
2023-01-21T02:39:25.326Z,9.6
2023-01-21T02:40:40.562Z,10.1
2023-01-21T02:41:57.710Z,9.6
2023-01-21T02:43:13.090Z,9.2
2023-01-21T02:44:25.316Z,9.8
2023-01-21T02:45:37.562Z,10
2023-01-21T02:46:44.608Z,10.4
2023-01-21T02:47:54.345Z,9.8
2023-01-21T02:49:09.490Z,10.4
2023-01-21T02:50:21.799Z,10.1
2023-01-21T02:51:31.877Z,9.2
2023-01-21T02:52:39.069Z,9.8
2023-01-21T02:53:46.214Z,9.8
2023-01-21T02:54:53.286Z,9
2023-01-21T02:56:01.556Z,9.6
2023-01-21T02:57:08.560Z,9.2
2023-01-21T02:58:15.619Z,8.7
2023-01-21T02:59:22.851Z,9.8
2023-01-21T03:00:30.006Z,9.5
2023-01-21T03:01:40.187Z,9.2
2023-01-21T03:02:52.736Z,9.3
2023-01-21T03:04:10.130Z,9
2023-01-21T03:05:22.350Z,8.4
2023-01-21T03:06:35.035Z,8.1
2023-01-21T03:07:48.216Z,9.1
2023-01-21T03:09:05.932Z,8.2
2023-01-21T03:10:20.790Z,9
2023-01-21T03:11:30.990Z,8.7
2023-01-21T03:12:38.106Z,8.7
2023-01-21T03:13:53.269Z,9.6
2023-01-21T03:15:13.631Z,8.8
2023-01-21T03:16:25.987Z,8.3
2023-01-21T03:17:38.117Z,8.9
2023-01-21T03:18:45.299Z,9
2023-01-21T03:19:52.835Z,8.4
2023-01-21T03:21:05.056Z,8.2
2023-01-21T03:22:12.093Z,7.9
2023-01-21T03:23:19.226Z,8.3
2023-01-21T03:24:34.551Z,8.1
2023-01-21T03:25:41.656Z,8.4
2023-01-21T03:26:48.647Z,8.9
2023-01-21T03:27:55.758Z,7.9
2023-01-21T03:29:02.892Z,8.6
2023-01-21T03:30:09.987Z,8.7
2023-01-21T03:31:17.216Z,8.1
2023-01-21T03:32:24.283Z,7.8
2023-01-21T03:33:31.349Z,7.8
2023-01-21T03:34:38.514Z,8.8
2023-01-21T03:35:45.651Z,8.3
2023-01-21T03:36:53.097Z,7.8
2023-01-21T03:38:00.394Z,8.1
2023-01-21T03:39:07.383Z,8.6
2023-01-21T03:40:14.672Z,8.5
2023-01-21T03:41:26.775Z,7.6
2023-01-21T03:42:34.329Z,8.7
2023-01-21T03:43:41.508Z,8.6
2023-01-21T03:44:49.055Z,8.5
2023-01-21T03:45:56.149Z,8.6
2023-01-21T03:47:03.451Z,9
2023-01-21T03:48:18.633Z,9.3
2023-01-21T03:49:35.911Z,9.7
2023-01-21T03:50:51.020Z,9.3
2023-01-21T03:51:58.195Z,8.6
2023-01-21T03:53:05.406Z,8
2023-01-21T03:54:12.367Z,8.8
2023-01-21T03:55:19.539Z,8.3
2023-01-21T03:56:26.662Z,8.8
2023-01-21T03:57:33.855Z,8.5
2023-01-21T03:58:40.960Z,7.4
2023-01-21T03:59:47.910Z,7.9
2023-01-21T04:00:55.051Z,8
2023-01-21T04:02:02.219Z,8
2023-01-21T04:03:09.322Z,8.7
2023-01-21T04:04:16.454Z,8.3
2023-01-21T04:05:23.759Z,8.2
2023-01-21T04:06:30.778Z,7.1
2023-01-21T04:07:38.330Z,7.6
2023-01-21T04:08:45.498Z,8.5
2023-01-21T04:10:05.218Z,8.4
2023-01-21T04:11:18.069Z,7.6
2023-01-21T04:12:25.222Z,7.8
2023-01-21T04:13:32.298Z,7.8
2023-01-21T04:14:39.441Z,7.5
2023-01-21T04:15:46.531Z,8.2
2023-01-21T04:16:53.476Z,8.5
2023-01-21T04:18:00.666Z,8.4
2023-01-21T04:19:07.817Z,7.8
2023-01-21T04:20:15.229Z,8.2
2023-01-21T04:21:22.158Z,8.5
2023-01-21T04:22:29.191Z,8.3
2023-01-21T04:23:36.332Z,8
2023-01-21T04:24:43.392Z,8
2023-01-21T04:25:50.626Z,9
2023-01-21T04:26:58.078Z,9.7
2023-01-21T04:28:05.199Z,8.3
2023-01-21T04:29:12.360Z,8.2
2023-01-21T04:30:19.511Z,8.1
2023-01-21T04:31:26.604Z,7.5
2023-01-21T04:32:33.825Z,7.6
2023-01-21T04:33:40.786Z,7.5
2023-01-21T04:34:47.846Z,7.5
2023-01-21T04:35:55.038Z,7.1
2023-01-21T04:37:05.220Z,7.1
2023-01-21T04:38:12.528Z,6.7
2023-01-21T04:39:19.495Z,7.3
2023-01-21T04:40:26.646Z,7.1
2023-01-21T04:41:33.749Z,6.8
2023-01-21T04:42:40.929Z,6.7
2023-01-21T04:43:47.863Z,6.7
2023-01-21T04:44:54.918Z,7
2023-01-21T04:46:02.357Z,7.4
2023-01-21T04:47:09.271Z,6.9
2023-01-21T04:48:16.327Z,8
2023-01-21T04:49:23.413Z,7
2023-01-21T04:50:30.535Z,6.9
2023-01-21T04:51:37.737Z,6.4
2023-01-21T04:52:44.962Z,7.3
2023-01-21T04:53:52.443Z,7.6
2023-01-21T04:54:59.518Z,8.5
2023-01-21T04:56:06.630Z,9
2023-01-21T04:57:13.766Z,8.5
2023-01-21T04:58:20.924Z,8
2023-01-21T04:59:28.201Z,8
2023-01-21T05:00:35.231Z,8.7
2023-01-21T05:01:42.222Z,8.8
2023-01-21T05:02:49.367Z,8.7
2023-01-21T05:03:56.397Z,7.8
2023-01-21T05:05:03.606Z,7.2
2023-01-21T05:06:11.225Z,8.4
2023-01-21T05:07:20.780Z,9.4
2023-01-21T05:08:25.460Z,9.2
2023-01-21T05:09:32.597Z,8.7
2023-01-21T05:10:39.714Z,8.8
2023-01-21T05:11:46.851Z,9
2023-01-21T05:12:53.979Z,9
2023-01-21T05:14:00.972Z,8.7
2023-01-21T05:15:08.129Z,8.9
2023-01-21T05:16:15.233Z,9
2023-01-21T05:17:22.346Z,9.1
2023-01-21T05:18:29.586Z,8.9
2023-01-21T05:19:36.797Z,10.1
2023-01-21T05:20:43.760Z,10.2
2023-01-21T05:21:51.194Z,9.2
2023-01-21T05:22:58.415Z,9.4
2023-01-21T05:24:05.448Z,9.5
2023-01-21T05:25:12.802Z,10.1
2023-01-21T05:26:20.323Z,9.7
2023-01-21T05:27:27.471Z,10.2
2023-01-21T05:28:34.544Z,9.8
2023-01-21T05:29:41.731Z,9.5
2023-01-21T05:30:48.718Z,9.4
2023-01-21T05:31:55.868Z,10.5
2023-01-21T05:33:02.886Z,10.5
2023-01-21T05:34:10.024Z,9
2023-01-21T05:35:17.158Z,9.6
2023-01-21T05:36:24.256Z,10
2023-01-21T05:37:31.567Z,10.4
2023-01-21T05:38:38.650Z,9.5
2023-01-21T05:39:45.645Z,10.2
2023-01-21T05:40:52.706Z,10.3
2023-01-21T05:42:02.885Z,10.9
2023-01-21T05:43:10.067Z,9.4
2023-01-21T05:44:17.790Z,9.3
2023-01-21T05:45:24.276Z,9.4
2023-01-21T05:46:31.492Z,10.6
2023-01-21T05:47:38.583Z,9.5
2023-01-21T05:48:45.666Z,9.2
2023-01-21T05:49:53.099Z,10.2
2023-01-21T05:51:00.264Z,9.6
2023-01-21T05:52:07.471Z,10.1
2023-01-21T05:53:14.492Z,9.6
2023-01-21T05:54:21.630Z,9.7
2023-01-21T05:55:28.795Z,10.3
2023-01-21T05:56:35.967Z,9.9
2023-01-21T05:57:43.084Z,9.9
2023-01-21T05:58:50.139Z,10
2023-01-21T05:59:57.199Z,10.1
2023-01-21T06:01:04.321Z,10.6
2023-01-21T06:02:11.611Z,10.5
2023-01-21T06:03:19.128Z,10.5
2023-01-21T06:04:26.410Z,10.2
2023-01-21T06:05:33.357Z,10.6
2023-01-21T06:06:40.459Z,10.3
2023-01-21T06:07:47.501Z,9.9
2023-01-21T06:08:54.658Z,9.8
2023-01-21T06:10:01.807Z,10
2023-01-21T06:11:09.449Z,9.5
2023-01-21T06:12:16.598Z,10.1
2023-01-21T06:13:23.591Z,10.5
2023-01-21T06:14:30.701Z,10.1
2023-01-21T06:15:37.939Z,10.2
2023-01-21T06:16:45.082Z,10.2
2023-01-21T06:17:52.799Z,9.4
2023-01-21T06:18:59.714Z,9.7
2023-01-21T06:20:06.820Z,10.4
2023-01-21T06:21:14.527Z,10.6
2023-01-21T06:22:21.671Z,10.4
2023-01-21T06:23:28.815Z,10.1
2023-01-21T06:24:35.968Z,10.3
2023-01-21T06:25:43.090Z,10.4
2023-01-21T06:26:50.082Z,8.7
2023-01-21T06:27:57.245Z,10.8
2023-01-21T06:29:04.295Z,9.4
2023-01-21T06:30:11.555Z,10.1
2023-01-21T06:31:19.337Z,9.3
2023-01-21T06:32:26.785Z,9.3
2023-01-21T06:33:33.886Z,8.7
2023-01-21T06:34:41.023Z,9.4
2023-01-21T06:35:48.593Z,9.4
2023-01-21T06:36:55.653Z,9
2023-01-21T06:38:02.765Z,9.3
2023-01-21T06:39:09.930Z,9.7
2023-01-21T06:40:17.585Z,9
2023-01-21T06:41:24.198Z,8.7
2023-01-21T06:42:31.325Z,9
2023-01-21T06:43:38.462Z,8.6
2023-01-21T06:44:45.649Z,8.1
2023-01-21T06:45:52.787Z,8.5
2023-01-21T06:47:00.877Z,8.4
2023-01-21T06:48:06.897Z,8.2
2023-01-21T06:49:13.989Z,9
2023-01-21T06:50:21.159Z,9.3
2023-01-21T06:51:28.241Z,8.8
2023-01-21T06:52:35.360Z,8.9
2023-01-21T06:53:42.577Z,9.5
2023-01-21T06:54:49.578Z,8
2023-01-21T06:55:56.742Z,9
2023-01-21T06:57:03.949Z,8
2023-01-21T06:58:10.986Z,8.8
2023-01-21T06:59:18.107Z,8
2023-01-21T07:00:25.218Z,8.7
2023-01-21T07:01:32.682Z,9
2023-01-21T07:02:39.484Z,9.4
2023-01-21T07:03:46.592Z,9.1
2023-01-21T07:04:54.108Z,9.3
2023-01-21T07:06:01.226Z,9.9
2023-01-21T07:07:08.853Z,8.5
2023-01-21T07:08:15.969Z,8.2
2023-01-21T07:09:23.071Z,8
2023-01-21T07:10:30.187Z,9
2023-01-21T07:11:37.325Z,9.2
2023-01-21T07:12:44.455Z,8.5
2023-01-21T07:13:51.475Z,8.2
2023-01-21T07:14:58.675Z,8.2
2023-01-21T07:16:07.014Z,8
2023-01-21T07:17:13.383Z,8.2
2023-01-21T07:18:20.970Z,8.8
2023-01-21T07:19:28.145Z,9
2023-01-21T07:20:35.197Z,8.4
2023-01-21T07:21:42.452Z,8.7
2023-01-21T07:22:49.965Z,9.2
2023-01-21T07:23:57.037Z,8.6
2023-01-21T07:25:04.153Z,9.4
2023-01-21T07:26:11.816Z,10
2023-01-21T07:27:18.929Z,10.4
2023-01-21T07:28:26.176Z,9.1
2023-01-21T07:29:33.241Z,10.7
2023-01-21T07:30:40.384Z,10.9
2023-01-21T07:31:47.369Z,10.5
2023-01-21T07:32:54.477Z,12.7
2023-01-21T07:34:01.638Z,18.4
2023-01-21T07:35:08.807Z,15.3
2023-01-21T07:36:15.823Z,32.4
2023-01-21T07:37:23.018Z,12.1
2023-01-21T07:38:30.095Z,17.6
2023-01-21T07:39:37.238Z,11
2023-01-21T07:40:44.365Z,13.2
2023-01-21T07:41:51.903Z,15.5
2023-01-21T07:42:59.115Z,11.1
2023-01-21T07:44:06.216Z,9.9
2023-01-21T07:45:13.314Z,9.5
2023-01-21T07:46:20.498Z,9.4
2023-01-21T07:47:27.597Z,10.9
2023-01-21T07:48:34.805Z,9.1
2023-01-21T07:49:41.905Z,8.5
2023-01-21T07:50:49.436Z,9.1
2023-01-21T07:51:56.539Z,9.1
2023-01-21T07:53:03.657Z,8.3
2023-01-21T07:54:10.951Z,8
2023-01-21T07:55:18.271Z,8.3
2023-01-21T07:56:25.076Z,8.8
2023-01-21T07:57:32.237Z,10.1
2023-01-21T07:58:39.357Z,18.3
2023-01-21T07:59:46.663Z,11.1
2023-01-21T08:00:54.005Z,10.4
2023-01-21T08:02:01.305Z,10.1
2023-01-21T08:03:08.326Z,10.2
2023-01-21T08:04:15.373Z,10.8
2023-01-21T08:05:22.617Z,10.4
2023-01-21T08:06:30.572Z,8.7
2023-01-21T08:07:37.958Z,8.3
2023-01-21T08:08:45.026Z,13.9
2023-01-21T08:09:52.493Z,18.4
2023-01-21T08:10:59.695Z,16.5
2023-01-21T08:12:08.052Z,9.2
2023-01-21T08:13:15.421Z,98.7
2023-01-21T08:14:24.397Z,44.5
2023-01-21T08:15:33.256Z,60.6
2023-01-21T08:16:41.482Z,62.4
2023-01-21T08:17:53.219Z,37.4
2023-01-21T08:19:00.228Z,87
2023-01-21T08:20:07.501Z,82.5
2023-01-21T08:21:17.695Z,27.7
2023-01-21T08:22:25.866Z,29.3
2023-01-21T08:23:35.284Z,33.2
2023-01-21T08:24:42.457Z,36.2
2023-01-21T08:25:49.653Z,61.9
2023-01-21T08:26:57.121Z,46.6
2023-01-21T08:28:04.405Z,18.6
2023-01-21T08:29:11.319Z,29
2023-01-21T08:30:18.604Z,32
2023-01-21T08:31:26.828Z,30.2
2023-01-21T08:32:34.617Z,15.3
2023-01-21T08:33:43.703Z,20.8
2023-01-21T08:34:52.177Z,21.6
2023-01-21T08:36:00.857Z,11.2
2023-01-21T08:37:09.630Z,11.2
2023-01-21T08:38:17.953Z,10.4
2023-01-21T08:39:25.089Z,9.1
2023-01-21T08:40:32.740Z,9.1
2023-01-21T08:41:40.009Z,8.7
2023-01-21T08:42:47.252Z,8.2
2023-01-21T08:43:55.520Z,8.5
2023-01-21T08:45:03.346Z,8.9
2023-01-21T08:46:11.077Z,8.8
2023-01-21T08:47:21.724Z,8.8
2023-01-21T08:48:28.865Z,9.6
2023-01-21T08:49:37.535Z,8.3
2023-01-21T08:50:44.398Z,9.5
2023-01-21T08:51:52.006Z,9.2
2023-01-21T08:53:00.787Z,9.8
2023-01-21T08:54:08.130Z,10.3
2023-01-21T08:55:15.686Z,10
2023-01-21T08:56:22.957Z,8.9
2023-01-21T08:57:31.082Z,9.1
2023-01-21T08:58:38.492Z,10.3
2023-01-21T08:59:45.770Z,11.2
2023-01-21T09:00:53.510Z,10.2
2023-01-21T09:02:01.161Z,9.8
2023-01-21T09:03:09.028Z,11.3
2023-01-21T09:04:16.108Z,9.2
2023-01-21T09:05:23.588Z,10.3
2023-01-21T09:06:31.489Z,11.1
2023-01-21T09:07:38.387Z,10.7
2023-01-21T09:08:46.089Z,10.5
2023-01-21T09:09:53.340Z,10.8
2023-01-21T09:11:00.664Z,10.7
2023-01-21T09:12:08.216Z,9.6
2023-01-21T09:13:16.586Z,9.7
2023-01-21T09:14:24.476Z,9.5
2023-01-21T09:15:31.505Z,8.8
2023-01-21T09:16:43.856Z,9.1
2023-01-21T09:17:51.427Z,12.9
2023-01-21T09:18:58.333Z,9.4
2023-01-21T09:20:06.427Z,10.6
2023-01-21T09:21:14.713Z,10
2023-01-21T09:22:22.797Z,10.9
2023-01-21T09:23:29.996Z,11.9
2023-01-21T09:24:39.302Z,9.6
2023-01-21T09:25:47.319Z,8.1
2023-01-21T09:26:59.807Z,9.1
2023-01-21T09:28:09.114Z,8.8
2023-01-21T09:29:17.641Z,8.6
2023-01-21T09:30:25.360Z,9.7
2023-01-21T09:31:32.701Z,8.3
2023-01-21T09:32:40.523Z,9
2023-01-21T09:33:48.304Z,10
2023-01-21T09:34:56.448Z,11.9
2023-01-21T09:36:05.217Z,12.6
2023-01-21T09:37:13.046Z,11.2
2023-01-21T09:38:20.420Z,9.7
2023-01-21T09:39:28.601Z,9.2
2023-01-21T09:40:35.584Z,7.2
2023-01-21T09:41:42.669Z,8.1
2023-01-21T09:42:52.306Z,8.2
2023-01-21T09:43:59.432Z,8.1
2023-01-21T09:45:17.167Z,8.2
2023-01-21T09:46:25.150Z,8.2
2023-01-21T09:47:38.841Z,7.4
2023-01-21T09:48:48.551Z,7.5
2023-01-21T09:49:57.130Z,7.2
2023-01-21T09:51:08.100Z,7.7
2023-01-21T09:52:20.819Z,7.8
2023-01-21T09:53:31.407Z,7.8
2023-01-21T09:54:41.732Z,7.7
2023-01-21T09:55:50.031Z,7.6
2023-01-21T09:56:57.244Z,7.9
2023-01-21T09:58:10.238Z,10.2
2023-01-21T09:59:26.402Z,11.6
2023-01-21T10:00:43.988Z,10.3
2023-01-21T10:01:56.425Z,9.5
2023-01-21T10:03:04.355Z,10.3
2023-01-21T10:04:24.499Z,8.8
2023-01-21T10:05:42.603Z,8.8
2023-01-21T10:06:57.517Z,18.6
2023-01-21T10:08:07.145Z,82.1
2023-01-21T10:09:24.674Z,79.4
2023-01-21T10:10:31.647Z,55.8
2023-01-21T10:11:42.728Z,67.2
2023-01-21T10:12:53.378Z,62.4
2023-01-21T10:14:05.000Z,96.4
2023-01-21T10:15:18.116Z,77.5
2023-01-21T10:16:35.366Z,42
2023-01-21T10:17:48.033Z,127.7
2023-01-21T10:19:03.148Z,67.2
2023-01-21T10:20:10.307Z,43.8
2023-01-21T10:21:24.462Z,22
2023-01-21T10:22:36.725Z,29.6
2023-01-21T10:23:44.965Z,42.7
2023-01-21T10:24:57.844Z,17.7
2023-01-21T10:26:08.294Z,17.5
2023-01-21T10:27:16.205Z,17
2023-01-21T10:28:24.492Z,24.1
2023-01-21T10:29:31.690Z,17.8
2023-01-21T10:30:39.515Z,18.6
2023-01-21T10:31:46.696Z,12.1
2023-01-21T10:33:03.693Z,10.5
2023-01-21T10:34:11.950Z,9.5
2023-01-21T10:35:21.431Z,14.2
2023-01-21T10:36:29.167Z,11.8
2023-01-21T10:37:47.102Z,14
2023-01-21T10:38:57.240Z,8.3
2023-01-21T10:40:11.442Z,6.9
2023-01-21T10:41:20.167Z,8.1
2023-01-21T10:42:28.118Z,7.9
2023-01-21T10:43:46.872Z,8.7
2023-01-21T10:45:05.261Z,8.1
2023-01-21T10:46:20.635Z,9.5
2023-01-21T10:47:36.547Z,8.7
2023-01-21T10:48:55.270Z,10.1
2023-01-21T10:50:02.338Z,12.8
2023-01-21T10:51:15.969Z,12.6
2023-01-21T10:52:30.125Z,12.2
2023-01-21T10:53:45.077Z,9
2023-01-21T10:55:00.043Z,12.9
2023-01-21T10:56:18.038Z,17.6
2023-01-21T10:57:33.665Z,13
2023-01-21T10:58:51.911Z,11.8
2023-01-21T11:00:00.111Z,17.7
2023-01-21T11:01:08.483Z,12.5
2023-01-21T11:02:23.894Z,8.6
2023-01-21T11:03:31.537Z,36.3
2023-01-21T11:04:40.398Z,13.4
2023-01-21T11:05:50.040Z,37.3
2023-01-21T11:06:57.324Z,13.3
2023-01-21T11:08:04.410Z,17.3
2023-01-21T11:09:11.407Z,18.4
2023-01-21T11:10:19.467Z,14.9
2023-01-21T11:11:28.457Z,13.5
2023-01-21T11:12:37.173Z,9.4
2023-01-21T11:13:45.877Z,10.8
2023-01-21T11:14:53.434Z,12.1
2023-01-21T11:16:01.929Z,15.3
2023-01-21T11:17:09.506Z,10.4
2023-01-21T11:18:17.026Z,9.5
2023-01-21T11:19:32.709Z,20.6
2023-01-21T11:20:40.769Z,11.7
2023-01-21T11:21:49.079Z,11.8
2023-01-21T11:23:07.833Z,17.6
2023-01-21T11:24:25.242Z,39.8
2023-01-21T11:25:32.346Z,26.4
2023-01-21T11:26:39.404Z,24.4
2023-01-21T11:27:47.073Z,22.4
2023-01-21T11:28:54.070Z,60.3
2023-01-21T11:30:31.619Z,36.3
2023-01-21T11:31:28.779Z,42.1
2023-01-21T11:32:35.894Z,76.9
2023-01-21T11:33:43.083Z,143.9
2023-01-21T11:34:50.658Z,198.1
2023-01-21T11:36:00.863Z,228
2023-01-21T11:37:18.266Z,247.8
2023-01-21T11:38:26.143Z,150.9
2023-01-21T11:39:33.572Z,95.5
2023-01-21T11:40:43.609Z,75.7
2023-01-21T11:41:50.587Z,93.2
2023-01-21T11:42:57.930Z,105.7
2023-01-21T11:44:04.806Z,92.7
2023-01-21T11:45:17.290Z,54.2
2023-01-21T11:46:29.315Z,34
2023-01-21T11:47:39.306Z,24.5
2023-01-21T11:48:53.275Z,11.1
2023-01-21T11:50:11.231Z,11
2023-01-21T11:51:26.114Z,13.1
2023-01-21T11:52:34.227Z,12.1
2023-01-21T11:53:41.365Z,10.9
2023-01-21T11:54:48.798Z,10.6
2023-01-21T11:55:56.051Z,12
2023-01-21T11:57:03.151Z,9.6
2023-01-21T11:58:11.255Z,9.7
2023-01-21T11:59:20.330Z,7.7
2023-01-21T12:00:30.098Z,10.9
2023-01-21T12:01:38.257Z,12.8
2023-01-21T12:02:45.561Z,11.3
2023-01-21T12:03:56.049Z,14.9
2023-01-21T12:05:03.622Z,14.1
2023-01-21T12:06:24.379Z,9.6
2023-01-21T12:07:32.772Z,9
2023-01-21T12:08:40.073Z,11.5
2023-01-21T12:09:47.031Z,9.7
2023-01-21T12:10:55.469Z,13.5
2023-01-21T12:12:02.774Z,10.7
2023-01-21T12:13:20.185Z,14.7
2023-01-21T12:14:30.301Z,16.3
2023-01-21T12:15:37.400Z,13
2023-01-21T12:16:55.410Z,13.4
2023-01-21T12:18:06.122Z,17.7
2023-01-21T12:19:18.267Z,14.8
2023-01-21T12:20:34.094Z,10.9
2023-01-21T12:21:52.597Z,11.4
2023-01-21T12:23:10.363Z,11.7
2023-01-21T12:24:22.705Z,10.5
2023-01-21T12:25:37.610Z,10.3
2023-01-21T12:26:48.405Z,22.2
2023-01-21T12:28:02.259Z,6.8
2023-01-21T12:29:20.789Z,10.5
2023-01-21T12:30:30.586Z,9.6
2023-01-21T12:31:43.051Z,9.9
2023-01-21T12:32:57.237Z,14.9
2023-01-21T12:34:06.911Z,9.6
2023-01-21T12:35:19.946Z,9.2
2023-01-21T12:36:27.545Z,17.6
2023-01-21T12:37:34.604Z,9.5
2023-01-21T12:38:46.817Z,10.8
2023-01-21T12:39:57.722Z,9.1
2023-01-21T12:41:05.185Z,8.3
2023-01-21T12:42:13.496Z,7.9
2023-01-21T12:43:29.141Z,7.9
2023-01-21T12:44:45.405Z,8.5
2023-01-21T12:45:52.840Z,8.6
2023-01-21T12:47:00.014Z,8.9
2023-01-21T12:48:07.141Z,8.6
2023-01-21T12:49:17.381Z,8.7
2023-01-21T12:50:25.139Z,8.9
2023-01-21T12:51:42.674Z,10.2
2023-01-21T12:52:49.634Z,8.9
2023-01-21T12:54:02.854Z,9.6
2023-01-21T12:55:18.466Z,10.5
2023-01-21T12:56:27.931Z,9.6
2023-01-21T12:57:41.433Z,10.1
2023-01-21T12:58:54.310Z,10.6
2023-01-21T13:00:03.102Z,10.9
2023-01-21T13:01:15.257Z,12.7
2023-01-21T13:02:32.961Z,11.7
2023-01-21T13:03:42.917Z,11.7
2023-01-21T13:05:00.233Z,36.9
2023-01-21T13:06:18.418Z,31.1
2023-01-21T13:07:28.267Z,25.2
2023-01-21T13:08:40.401Z,34.2
2023-01-21T13:09:53.730Z,76.7
2023-01-21T13:11:09.115Z,100
2023-01-21T13:12:24.552Z,78.1
2023-01-21T13:13:31.509Z,137.4
2023-01-21T13:14:39.455Z,150.5
2023-01-21T13:15:46.665Z,81.2
2023-01-21T13:16:53.887Z,89.1
2023-01-21T13:18:01.684Z,85.3
2023-01-21T13:19:14.821Z,166.7
2023-01-21T13:20:21.864Z,113.4
2023-01-21T13:21:28.821Z,73.2
2023-01-21T13:22:41.853Z,62.3
2023-01-21T13:23:56.918Z,179.9
2023-01-21T13:25:04.905Z,136.8
2023-01-21T13:26:11.806Z,50
2023-01-21T13:27:18.778Z,42.4
2023-01-21T13:28:26.748Z,42.7
2023-01-21T13:29:38.823Z,43.3
2023-01-21T13:30:54.505Z,44.2
2023-01-21T13:32:01.585Z,38.7
2023-01-21T13:33:18.789Z,21.7
2023-01-21T13:34:31.037Z,16.8
2023-01-21T13:35:43.379Z,33.2
2023-01-21T13:36:56.516Z,33.4
2023-01-21T13:38:15.174Z,31.5
2023-01-21T13:39:28.378Z,18.8
2023-01-21T13:40:41.406Z,28.6
2023-01-21T13:41:54.686Z,17
2023-01-21T13:43:09.189Z,46.4
2023-01-21T13:44:25.162Z,39.3
2023-01-21T13:45:37.551Z,14.6
2023-01-21T13:46:54.843Z,19.2
2023-01-21T13:48:08.849Z,26.6
2023-01-21T13:49:25.318Z,26.5
2023-01-21T13:50:44.032Z,14.7
2023-01-21T13:51:54.001Z,15.7
2023-01-21T13:53:01.697Z,23.3
2023-01-21T13:54:19.679Z,30.5
2023-01-21T13:55:32.701Z,22.6
2023-01-21T13:56:45.613Z,20.9
2023-01-21T13:57:56.378Z,39
2023-01-21T13:59:14.582Z,25.1
2023-01-21T14:00:21.507Z,21.1
2023-01-21T14:01:36.826Z,79.9
2023-01-21T14:02:50.693Z,36.3
2023-01-21T14:04:03.386Z,32.8
2023-01-21T14:05:11.487Z,38.7
2023-01-21T14:06:24.609Z,41
2023-01-21T14:07:32.377Z,47.1
2023-01-21T14:08:40.038Z,41.7
2023-01-21T14:09:53.484Z,53
2023-01-21T14:11:03.469Z,44.7
2023-01-21T14:12:14.258Z,37.8
2023-01-21T14:13:24.130Z,39.3
2023-01-21T14:14:42.561Z,38.6
2023-01-21T14:15:53.641Z,43.7
2023-01-21T14:17:10.850Z,48.5
2023-01-21T14:18:24.463Z,50.2
2023-01-21T14:19:42.901Z,58.7
2023-01-21T14:20:58.858Z,40.1
2023-01-21T14:22:12.063Z,38
2023-01-21T14:23:26.150Z,59.5
2023-01-21T14:24:36.254Z,58.7
2023-01-21T14:25:53.497Z,79.4
2023-01-21T14:27:10.253Z,56.6
2023-01-21T14:28:27.871Z,46.8
2023-01-21T14:29:40.546Z,39.6
2023-01-21T14:30:57.993Z,32.5
2023-01-21T14:32:13.851Z,61.8
2023-01-21T14:33:23.932Z,50.7
2023-01-21T14:34:36.105Z,31
2023-01-21T14:35:46.817Z,27.5
2023-01-21T14:36:57.933Z,29
2023-01-21T14:38:10.465Z,81.3
2023-01-21T14:39:27.851Z,46.9
2023-01-21T14:40:38.517Z,36.4
2023-01-21T14:41:51.460Z,28.8
2023-01-21T14:43:04.179Z,25.4
2023-01-21T14:44:11.970Z,39.6
2023-01-21T14:45:19.839Z,38.5
2023-01-21T14:46:28.059Z,32.1
2023-01-21T14:47:35.978Z,26.8
2023-01-21T14:48:43.493Z,25.8
2023-01-21T14:49:50.613Z,23.4
2023-01-21T14:50:58.559Z,23.4
2023-01-21T14:52:10.597Z,24.1
2023-01-21T14:53:18.573Z,27
2023-01-21T14:54:28.202Z,25.4
2023-01-21T14:55:36.752Z,24.9
2023-01-21T14:56:44.403Z,27.1
2023-01-21T14:57:59.785Z,25.8
2023-01-21T14:59:07.962Z,26.8
2023-01-21T15:00:26.667Z,27.1
2023-01-21T15:01:36.856Z,35
2023-01-21T15:02:47.959Z,30
2023-01-21T15:03:58.666Z,30.4
2023-01-21T15:05:06.313Z,30.8
2023-01-21T15:06:15.477Z,28.7
2023-01-21T15:07:23.944Z,29.5
2023-01-21T15:08:31.478Z,33.8
2023-01-21T15:09:41.208Z,28.7
2023-01-21T15:10:48.514Z,30.2
2023-01-21T15:11:58.606Z,27.9
2023-01-21T15:13:06.057Z,32.8
2023-01-21T15:14:25.328Z,34.8
2023-01-21T15:15:34.894Z,33.9
2023-01-21T15:16:44.986Z,35.5
2023-01-21T15:17:52.442Z,35.5
2023-01-21T15:19:00.669Z,35
2023-01-21T15:20:11.158Z,37
2023-01-21T15:21:28.771Z,33.8
2023-01-21T15:22:36.636Z,37.4
2023-01-21T15:23:44.559Z,43.9
2023-01-21T15:24:53.937Z,36.5
2023-01-21T15:26:04.101Z,39.2
2023-01-21T15:27:11.563Z,38.7
2023-01-21T15:28:18.572Z,36.4
2023-01-21T15:29:29.795Z,39.9
2023-01-21T15:30:54.190Z,47.3
2023-01-21T15:31:49.096Z,35.4
2023-01-21T15:32:57.012Z,35.8
2023-01-21T15:34:05.433Z,35.5
2023-01-21T15:35:15.105Z,37.8
2023-01-21T15:36:34.094Z,38.4
2023-01-21T15:37:46.402Z,40.2
2023-01-21T15:38:56.901Z,37.9
2023-01-21T15:40:04.217Z,38
2023-01-21T15:41:21.436Z,40.3